Time;durP1;ratioP1;P1;durP2;ratioP2;P2;SDS_P1;SDS_P2;PMS_P1;PMS_P2;Temp;Humidity;BMP_temperature;BMP_pressure;BME280_temperature;BME280_humidity;BME280_pressure;Samples;Min_cycle;Max_cycle;Signal;HPM_P1;HPM_P2
2023/05/15 00:00:55;;;;;;;8.05;4.85;;;;;;;13.86;100.00;97371.28;5113236;28;20038;-83
2023/05/15 00:03:20;;;;;;;6.88;4.32;;;;;;;13.85;100.00;97364.16;5113405;28;20032;-83
2023/05/15 00:05:46;;;;;;;9.10;4.50;;;;;;;13.85;100.00;97378.47;5113373;28;20028;-83
2023/05/15 00:08:11;;;;;;;7.45;5.75;;;;;;;13.84;100.00;97351.72;5112947;28;20031;-83
2023/05/15 00:10:37;;;;;;;12.18;5.63;;;;;;;13.83;100.00;97352.69;5096521;28;20035;-83
2023/05/15 00:13:02;;;;;;;6.70;4.93;;;;;;;13.84;100.00;97373.22;5096459;28;20513;-82
2023/05/15 00:15:28;;;;;;;12.80;5.15;;;;;;;13.81;100.00;97360.03;5113540;28;20024;-82
2023/05/15 00:17:53;;;;;;;6.55;3.90;;;;;;;13.90;100.00;97364.69;5096590;28;20455;-82
2023/05/15 00:20:19;;;;;;;10.77;5.13;;;;;;;13.87;100.00;97328.13;5112812;28;20544;-82
2023/05/15 00:22:44;;;;;;;7.90;4.13;;;;;;;13.89;100.00;97328.00;5114032;28;20131;-83
2023/05/15 00:25:10;;;;;;;6.53;4.90;;;;;;;13.97;100.00;97315.66;5113331;28;20035;-82
2023/05/15 00:27:35;;;;;;;6.90;4.82;;;;;;;14.00;100.00;97315.41;5113831;28;20027;-82
2023/05/15 00:30:01;;;;;;;10.90;4.90;;;;;;;14.00;100.00;97323.50;5113435;28;20029;-82
2023/05/15 00:32:26;;;;;;;9.02;4.45;;;;;;;14.02;100.00;97318.00;5113850;28;20036;-83
2023/05/15 00:34:52;;;;;;;12.82;5.05;;;;;;;14.06;100.00;97319.44;5095663;28;20015;-83
2023/05/15 00:37:17;;;;;;;7.20;4.93;;;;;;;14.08;100.00;97336.34;5112679;28;20042;-82
2023/05/15 00:39:43;;;;;;;8.52;4.57;;;;;;;14.11;100.00;97323.50;5095383;28;20027;-82
2023/05/15 00:42:09;;;;;;;7.47;5.15;;;;;;;14.21;100.00;97307.50;5095148;28;20464;-82
2023/05/15 00:44:35;;;;;;;8.63;4.65;;;;;;;14.33;100.00;97314.59;5095225;28;20042;-83
2023/05/15 00:47:02;;;;;;;6.55;2.50;;;;;;;14.39;100.00;97303.34;5112160;28;20031;-82
2023/05/15 00:49:28;;;;;;;6.07;3.88;;;;;;;14.49;100.00;97280.06;5095437;28;20036;-82
2023/05/15 00:51:56;;;;;;;7.60;4.13;;;;;;;14.58;100.00;97292.75;5112225;28;20502;-82
2023/05/15 00:54:21;;;;;;;4.95;4.00;;;;;;;14.62;100.00;97296.94;5112384;28;20052;-82
2023/05/15 00:56:48;;;;;;;5.35;3.78;;;;;;;14.64;100.00;97294.13;5095406;28;20111;-82
2023/05/15 00:59:15;;;;;;;8.05;4.32;;;;;;;14.67;100.00;97301.94;5112147;28;20074;-82
2023/05/15 01:01:40;;;;;;;7.38;4.40;;;;;;;14.76;100.00;97303.03;5095604;28;20038;-83
2023/05/15 01:04:06;;;;;;;7.55;4.00;;;;;;;14.79;100.00;97286.59;5112473;28;20031;-83
2023/05/15 01:06:31;;;;;;;7.55;4.78;;;;;;;14.80;100.00;97289.16;5113938;28;20015;-83
2023/05/15 01:09:01;;;;;;;7.68;3.95;;;;;;;14.90;100.00;97286.56;5112182;28;20120;-83
2023/05/15 01:11:34;;;;;;;5.65;3.63;;;;;;;14.91;100.00;97277.50;5094996;28;20020;-83
2023/05/15 01:14:05;;;;;;;7.72;4.50;;;;;;;14.90;100.00;97275.78;5112065;28;20402;-83
2023/05/15 01:16:31;;;;;;;7.55;4.03;;;;;;;14.84;100.00;97290.63;5112393;28;20046;-83
2023/05/15 01:18:57;;;;;;;6.50;4.07;;;;;;;14.82;100.00;97284.53;5095140;28;20499;-83
2023/05/15 01:21:37;;;;;;;5.63;4.15;;;;;;;14.73;100.00;97308.66;5094904;28;20024;-82
2023/05/15 01:24:26;;;;;;;9.48;5.05;;;;;;;14.60;100.00;97311.50;5112252;28;20483;-83
2023/05/15 01:27:12;;;;;;;6.90;4.85;;;;;;;14.53;100.00;97331.81;5111654;28;20031;-83
2023/05/15 01:30:08;;;;;;;9.68;5.38;;;;;;;14.25;100.00;97318.84;5110066;28;20027;-83
2023/05/15 01:32:47;;;;;;;7.10;5.30;;;;;;;14.08;100.00;97334.50;5107921;28;20048;-83
2023/05/15 01:35:14;;;;;;;10.27;4.95;;;;;;;13.95;100.00;97347.22;5112232;28;20051;-83
2023/05/15 01:37:43;;;;;;;6.90;5.05;;;;;;;13.90;100.00;97346.72;5112243;28;20077;-83
2023/05/15 01:40:09;;;;;;;9.30;5.30;;;;;;;13.88;100.00;97347.78;5095496;28;20069;-83
2023/05/15 01:42:38;;;;;;;7.03;4.80;;;;;;;13.90;100.00;97335.09;5090562;28;20076;-83
2023/05/15 01:45:06;;;;;;;10.52;5.47;;;;;;;14.01;100.00;97335.09;5094640;28;20060;-83
2023/05/15 01:47:40;;;;;;;7.05;4.65;;;;;;;14.05;100.00;97325.81;5111423;28;20043;-83
2023/05/15 01:50:06;;;;;;;6.57;4.97;;;;;;;14.06;100.00;97328.38;5112056;28;20193;-83
2023/05/15 01:52:33;;;;;;;7.15;5.10;;;;;;;14.13;100.00;97340.38;5094585;28;20085;-83
2023/05/15 01:55:03;;;;;;;8.52;5.07;;;;;;;14.05;100.00;97337.44;5095019;28;20514;-82
2023/05/15 01:57:30;;;;;;;8.55;5.05;;;;;;;13.95;100.00;97330.22;5111677;28;20026;-82
2023/05/15 01:59:57;;;;;;;6.82;5.05;;;;;;;13.84;100.00;97322.16;5111310;28;20030;-82
2023/05/15 02:02:22;;;;;;;10.00;5.80;;;;;;;13.74;100.00;97307.72;5112098;28;20027;-82
2023/05/15 02:04:48;;;;;;;9.00;5.38;;;;;;;13.75;100.00;97312.13;5095105;28;20055;-82
2023/05/15 02:07:14;;;;;;;7.28;5.28;;;;;;;13.67;100.00;97311.84;5096242;28;20027;-82
2023/05/15 02:09:40;;;;;;;6.95;5.72;;;;;;;13.63;100.00;97305.84;5094519;28;20024;-82
2023/05/15 02:12:06;;;;;;;11.57;5.35;;;;;;;13.61;100.00;97315.00;5111769;28;20055;-83
2023/05/15 02:14:32;;;;;;;8.18;5.47;;;;;;;13.62;100.00;97295.22;5111001;28;20027;-82
2023/05/15 02:16:57;;;;;;;8.02;5.47;;;;;;;13.67;100.00;97279.59;5094259;28;20058;-82
2023/05/15 02:19:23;;;;;;;15.35;9.68;;;;;;;13.75;100.00;97256.50;5110882;28;20555;-82
2023/05/15 02:21:50;;;;;;;8.18;4.72;;;;;;;13.79;100.00;97278.63;5111071;28;20027;-83
2023/05/15 02:24:15;;;;;;;7.72;4.95;;;;;;;13.74;100.00;97267.38;5110730;28;20023;-82
2023/05/15 02:27:12;;;;;;;7.25;3.45;;;;;;;13.92;100.00;97279.38;5093426;28;20376;-82
2023/05/15 02:29:54;;;;;;;8.18;5.25;;;;;;;13.92;100.00;97282.06;5110622;28;20038;-83
2023/05/15 02:33:07;;;;;;;11.33;5.70;;;;;;;13.88;100.00;97283.25;5094005;28;20506;-83
2023/05/15 02:35:56;;;;;;;8.98;5.57;;;;;;;13.90;100.00;97274.13;5091034;28;20300;-84
2023/05/15 02:38:44;;;;;;;8.05;5.18;;;;;;;13.92;100.00;97276.69;5093706;28;20024;-83
2023/05/15 02:41:10;;;;;;;8.70;5.15;;;;;;;13.93;100.00;97305.28;5093597;28;20027;-83
2023/05/15 02:43:36;;;;;;;6.57;4.78;;;;;;;13.96;100.00;97305.91;5093590;28;20032;-82
2023/05/15 02:46:02;;;;;;;8.80;5.45;;;;;;;13.95;100.00;97304.19;5110689;28;20034;-83
2023/05/15 02:48:28;;;;;;;6.55;4.57;;;;;;;14.02;100.00;97300.03;5110347;28;20053;-83
2023/05/15 02:50:54;;;;;;;7.43;5.07;;;;;;;13.95;100.00;97279.13;5111018;28;20020;-83
2023/05/15 02:53:19;;;;;;;14.38;5.55;;;;;;;13.95;100.00;97281.81;5111104;28;20019;-83
2023/05/15 02:55:45;;;;;;;8.63;5.63;;;;;;;14.00;100.00;97282.28;5111123;28;20073;-82
2023/05/15 02:58:10;;;;;;;8.27;5.32;;;;;;;13.95;100.00;97260.28;5110870;28;20044;-83
2023/05/15 03:00:36;;;;;;;7.95;5.70;;;;;;;13.98;100.00;97277.03;5110244;28;20035;-82
2023/05/15 03:03:01;;;;;;;10.68;5.78;;;;;;;13.96;100.00;97280.84;5093434;28;20479;-83
2023/05/15 03:05:27;;;;;;;9.07;6.10;;;;;;;13.95;100.00;97273.75;5093249;28;20093;-83
2023/05/15 03:07:52;;;;;;;8.85;6.10;;;;;;;13.91;100.00;97274.97;5093511;28;20467;-83
2023/05/15 03:10:20;;;;;;;15.77;5.47;;;;;;;13.87;100.00;97273.50;5093949;28;20148;-83
2023/05/15 03:12:45;;;;;;;8.98;5.53;;;;;;;13.82;100.00;97276.53;5097502;28;20410;-83
2023/05/15 03:15:11;;;;;;;9.57;6.00;;;;;;;13.83;100.00;97293.53;5114585;28;20012;-83
2023/05/15 03:17:36;;;;;;;11.27;5.50;;;;;;;13.78;100.00;97312.72;5097251;28;20032;-83
2023/05/15 03:20:03;;;;;;;9.90;5.75;;;;;;;13.80;100.00;97321.53;5115513;28;20051;-83
2023/05/15 03:22:29;;;;;;;8.18;4.57;;;;;;;13.83;100.00;97298.91;5114176;28;20036;-84
2023/05/15 03:24:54;;;;;;;9.35;5.38;;;;;;;13.81;100.00;97285.56;5096575;28;20030;-83
2023/05/15 03:27:20;;;;;;;8.52;5.53;;;;;;;13.89;100.00;97290.38;5115582;28;20041;-83
2023/05/15 03:29:47;;;;;;;8.02;5.63;;;;;;;13.88;100.00;97289.50;5113788;28;20133;-82
2023/05/15 03:32:13;;;;;;;10.82;6.22;;;;;;;13.94;100.00;97293.53;5097003;28;20035;-82
2023/05/15 03:34:41;;;;;;;7.78;4.65;;;;;;;13.90;100.00;97301.00;5113537;28;20041;-76
2023/05/15 03:37:06;;;;;;;10.93;5.28;;;;;;;13.82;100.00;97292.69;5113642;28;20031;-77
2023/05/15 03:39:32;;;;;;;10.27;5.75;;;;;;;13.91;100.00;97280.34;5114613;28;20038;-80
2023/05/15 03:41:57;;;;;;;7.38;5.15;;;;;;;13.92;100.00;97274.00;5113369;28;20027;-79
2023/05/15 03:44:23;;;;;;;6.55;4.95;;;;;;;13.89;100.00;97276.91;5096221;28;20054;-76
2023/05/15 03:46:48;;;;;;;7.70;5.20;;;;;;;13.89;100.00;97287.69;5113458;28;20047;-76
2023/05/15 03:49:15;;;;;;;7.53;4.80;;;;;;;13.86;100.00;97287.91;5095986;28;20034;-77
2023/05/15 03:51:40;;;;;;;6.93;4.70;;;;;;;13.97;100.00;97278.00;5112806;28;20035;-76
2023/05/15 03:54:06;;;;;;;7.72;5.05;;;;;;;14.07;100.00;97276.31;5095464;28;20035;-75
2023/05/15 03:56:32;;;;;;;12.38;5.47;;;;;;;14.10;100.00;97277.88;5114140;28;20031;-75
2023/05/15 03:58:57;;;;;;;9.07;4.45;;;;;;;14.16;100.00;97274.72;5112549;28;20024;-75
2023/05/15 04:01:23;;;;;;;11.65;5.38;;;;;;;14.26;100.00;97275.69;5112805;28;20032;-76
2023/05/15 04:03:48;;;;;;;8.10;5.40;;;;;;;14.33;100.00;97298.47;5112780;28;20102;-76
2023/05/15 04:06:14;;;;;;;12.40;4.97;;;;;;;14.35;100.00;97312.63;5112544;28;20553;-76
2023/05/15 04:08:40;;;;;;;16.15;6.50;;;;;;;14.32;100.00;97318.22;5112342;28;20027;-74
2023/05/15 04:11:06;;;;;;;9.65;6.00;;;;;;;14.38;100.00;97325.84;5095387;28;20019;-74
2023/05/15 04:13:31;;;;;;;10.88;6.35;;;;;;;14.43;100.00;97303.94;5113776;28;20027;-75
2023/05/15 04:15:58;;;;;;;8.07;5.22;;;;;;;14.46;100.00;97288.38;5092431;28;20119;-79
2023/05/15 04:18:24;;;;;;;12.57;6.05;;;;;;;14.47;100.00;97298.19;5110099;28;20467;-78
2023/05/15 04:20:51;;;;;;;8.85;5.88;;;;;;;14.53;100.00;97292.31;5092889;28;20028;-75
2023/05/15 04:23:16;;;;;;;7.40;5.15;;;;;;;14.52;100.00;97279.81;5108622;28;20101;-75
2023/05/15 04:25:45;;;;;;;11.40;6.00;;;;;;;14.56;100.00;97289.34;5092536;28;20043;-76
2023/05/15 04:28:11;;;;;;;9.52;5.75;;;;;;;14.56;100.00;97305.50;5109629;28;20081;-75
2023/05/15 04:30:37;;;;;;;13.40;6.30;;;;;;;14.53;100.00;97305.75;5111625;28;20076;-74
2023/05/15 04:33:02;;;;;;;8.50;5.65;;;;;;;14.49;100.00;97304.28;5111723;28;20047;-75
2023/05/15 04:35:28;;;;;;;12.02;5.68;;;;;;;14.57;100.00;97309.91;5111658;28;20027;-75
2023/05/15 04:37:54;;;;;;;15.25;6.00;;;;;;;14.63;100.00;97298.66;5095116;28;20068;-76
2023/05/15 04:40:20;;;;;;;11.95;5.55;;;;;;;14.69;100.00;97305.38;5094647;28;20500;-75
2023/05/15 04:42:45;;;;;;;13.38;6.32;;;;;;;14.59;100.00;97326.78;5094851;28;20024;-75
2023/05/15 04:45:11;;;;;;;10.30;5.90;;;;;;;14.59;100.00;97323.25;5111354;28;20040;-75
2023/05/15 04:47:37;;;;;;;9.30;5.88;;;;;;;14.72;100.00;97318.56;5111599;28;20027;-75
2023/05/15 04:50:03;;;;;;;20.23;7.70;;;;;;;14.86;100.00;97333.59;5111537;28;20523;-75
2023/05/15 04:52:28;;;;;;;19.48;7.57;;;;;;;15.01;100.00;97324.25;5093965;28;20550;-75
2023/05/15 04:54:54;;;;;;;18.98;8.35;;;;;;;15.07;100.00;97312.97;5111773;28;20015;-75
2023/05/15 04:57:20;;;;;;;15.80;6.72;;;;;;;15.19;100.00;97298.47;5111488;28;20108;-75
2023/05/15 05:00:01;;;;;;;22.30;9.38;;;;;;;15.23;100.00;97283.72;5111465;28;20055;-76
2023/05/15 05:02:26;;;;;;;18.42;8.20;;;;;;;15.16;100.00;97288.78;5110686;28;20088;-76
2023/05/15 05:04:52;;;;;;;12.13;6.47;;;;;;;14.91;100.00;97293.66;5112601;28;20039;-76
2023/05/15 05:07:17;;;;;;;11.07;6.47;;;;;;;15.03;100.00;97315.06;5094228;28;20028;-76
2023/05/15 05:09:43;;;;;;;8.05;5.60;;;;;;;15.12;100.00;97305.34;5094050;28;20064;-74
2023/05/15 05:12:09;;;;;;;16.48;9.05;;;;;;;15.24;100.00;97285.44;5094185;28;20027;-74
2023/05/15 05:14:55;;;;;;;13.10;7.53;;;;;;;15.20;100.00;97278.59;5093863;28;20475;-75
2023/05/15 05:17:21;;;;;;;19.63;7.68;;;;;;;15.24;100.00;97257.63;5112212;28;20068;-75
2023/05/15 05:19:47;;;;;;;14.45;6.43;;;;;;;15.17;100.00;97255.47;5111004;28;20035;-76
2023/05/15 05:22:12;;;;;;;14.48;8.57;;;;;;;15.14;100.00;97247.63;5094199;28;20176;-75
2023/05/15 05:24:38;;;;;;;19.30;11.65;;;;;;;15.13;100.00;97245.09;5110647;28;20030;-75
2023/05/15 05:27:04;;;;;;;6.38;4.70;;;;;;;14.88;100.00;97240.91;5093928;28;20465;-75
2023/05/15 05:29:30;;;;;;;12.90;6.30;;;;;;;14.77;100.00;97242.78;5093830;28;20030;-75
2023/05/15 05:31:55;;;;;;;8.55;4.68;;;;;;;14.71;100.00;97237.91;5110966;28;20409;-75
2023/05/15 05:34:21;;;;;;;13.93;5.85;;;;;;;14.75;100.00;97247.44;5110907;28;20055;-74
2023/05/15 05:36:47;;;;;;;25.35;12.68;;;;;;;14.84;100.00;97243.97;5110802;28;20033;-74
2023/05/15 05:39:13;;;;;;;20.42;9.70;;;;;;;15.00;100.00;97241.72;5110821;28;20035;-75
2023/05/15 05:41:39;;;;;;;237.25;97.93;;;;;;;14.98;100.00;97235.63;5093460;28;20031;-74
2023/05/15 05:44:05;;;;;;;11.45;6.22;;;;;;;14.96;100.00;97224.97;5111981;28;20020;-74
2023/05/15 05:46:30;;;;;;;19.98;6.72;;;;;;;15.05;100.00;97242.16;5110498;28;20023;-75
2023/05/15 05:48:56;;;;;;;8.38;5.13;;;;;;;15.04;100.00;97225.16;5093486;28;20027;-74
2023/05/15 05:51:21;;;;;;;11.23;5.25;;;;;;;15.07;100.00;97230.28;5110755;28;20031;-75
2023/05/15 05:53:47;;;;;;;14.60;6.05;;;;;;;15.11;100.00;97238.97;5093273;28;20019;-74
2023/05/15 05:56:12;;;;;;;12.77;5.20;;;;;;;15.22;100.00;97243.44;5110609;28;20020;-75
2023/05/15 05:58:38;;;;;;;10.40;5.35;;;;;;;15.26;100.00;97229.56;5110219;28;20028;-74
2023/05/15 06:01:04;;;;;;;12.10;5.55;;;;;;;15.25;100.00;97235.97;5110568;28;20027;-76
2023/05/15 06:03:30;;;;;;;9.38;6.13;;;;;;;15.13;100.00;97234.31;5110358;28;20027;-75
2023/05/15 06:05:56;;;;;;;13.82;7.28;;;;;;;15.09;100.00;97255.28;5110188;28;20489;-74
2023/05/15 06:08:21;;;;;;;13.13;6.40;;;;;;;15.07;100.00;97240.22;5093340;28;20027;-74
2023/05/15 06:10:47;;;;;;;10.43;6.50;;;;;;;15.17;100.00;97246.50;5093242;28;20548;-76
2023/05/15 06:13:13;;;;;;;17.63;7.70;;;;;;;15.37;100.00;97237.59;5110205;28;20148;-76
2023/05/15 06:15:39;;;;;;;10.82;5.72;;;;;;;15.56;100.00;97244.97;5093188;28;20027;-75
2023/05/15 06:18:05;;;;;;;13.82;6.88;;;;;;;15.93;100.00;97265.06;5092701;28;20411;-74
2023/05/15 06:20:31;;;;;;;22.52;13.25;;;;;;;16.39;100.00;97247.47;5110168;28;20034;-74
2023/05/15 06:22:56;;;;;;;12.88;7.63;;;;;;;16.76;100.00;97257.50;5109943;28;20038;-74
2023/05/15 06:25:22;;;;;;;10.20;5.75;;;;;;;16.98;100.00;97237.47;5110172;28;20491;-74
2023/05/15 06:27:48;;;;;;;10.57;5.60;;;;;;;16.98;100.00;97244.75;5109941;28;20077;-75
2023/05/15 06:30:13;;;;;;;14.55;6.28;;;;;;;17.42;100.00;97246.84;5109569;28;20023;-75
2023/05/15 06:32:40;;;;;;;14.77;9.38;;;;;;;17.81;100.00;97232.25;5109694;28;20083;-75
2023/05/15 06:35:07;;;;;;;12.13;5.93;;;;;;;18.21;100.00;97228.41;5110918;28;20073;-75
2023/05/15 06:37:32;;;;;;;11.65;5.30;;;;;;;18.86;100.00;97221.88;5093019;28;20042;-76
2023/05/15 06:39:58;;;;;;;20.95;12.52;;;;;;;19.67;100.00;97218.03;5092619;28;20118;-74
2023/05/15 06:42:23;;;;;;;59.20;27.83;;;;;;;19.72;100.00;97221.09;5092900;28;20027;-76
2023/05/15 06:44:49;;;;;;;49.67;25.98;;;;;;;19.63;100.00;97219.34;5109837;28;20450;-73
2023/05/15 06:47:15;;;;;;;12.20;6.53;;;;;;;19.58;100.00;97224.41;5113442;28;20023;-74
2023/05/15 06:49:40;;;;;;;17.35;6.50;;;;;;;19.74;100.00;97226.38;5096979;28;20039;-75
2023/05/15 06:52:06;;;;;;;16.60;7.97;;;;;;;19.35;100.00;97223.16;5113751;28;20046;-75
2023/05/15 06:54:31;;;;;;;15.75;6.57;;;;;;;19.31;100.00;97230.78;5115310;28;20028;-75
2023/05/15 06:56:57;;;;;;;13.82;7.18;;;;;;;19.17;100.00;97230.47;5113744;28;20060;-76
2023/05/15 06:59:22;;;;;;;15.75;7.65;;;;;;;18.78;100.00;97236.22;5113598;28;20019;-74
2023/05/15 07:01:48;;;;;;;15.20;7.40;;;;;;;18.64;100.00;97244.84;5113570;28;20027;-75
2023/05/15 07:04:13;;;;;;;8.93;5.60;;;;;;;18.57;100.00;97227.50;5113203;28;20026;-77
2023/05/15 07:06:39;;;;;;;7.15;5.28;;;;;;;18.29;100.00;97204.13;5096641;28;20055;-74
2023/05/15 07:09:05;;;;;;;8.60;4.63;;;;;;;17.79;100.00;97204.50;5113587;28;20027;-76
2023/05/15 07:11:32;;;;;;;8.77;5.60;;;;;;;17.43;100.00;97210.69;5114779;28;20028;-74
2023/05/15 07:13:57;;;;;;;10.95;6.10;;;;;;;17.10;100.00;97214.69;5096571;28;20505;-74
2023/05/15 07:16:23;;;;;;;12.05;6.75;;;;;;;17.15;100.00;97225.97;5113334;28;20028;-75
2023/05/15 07:18:48;;;;;;;10.73;6.60;;;;;;;17.29;100.00;97224.66;5113674;28;20015;-75
2023/05/15 07:21:14;;;;;;;13.82;6.60;;;;;;;17.44;100.00;97214.25;5096255;28;20032;-75
2023/05/15 07:23:39;;;;;;;16.85;7.90;;;;;;;17.46;100.00;97207.69;5113690;28;20144;-75
2023/05/15 07:26:05;;;;;;;16.45;8.02;;;;;;;17.80;100.00;97205.34;5113292;28;20031;-75
2023/05/15 07:28:30;;;;;;;11.40;7.05;;;;;;;18.06;100.00;97190.13;5096189;28;20127;-75
2023/05/15 07:30:58;;;;;;;10.20;6.18;;;;;;;17.85;100.00;97193.06;5096255;28;20027;-76
2023/05/15 07:33:24;;;;;;;9.45;6.72;;;;;;;18.37;100.00;97196.09;5094579;28;20557;-76
2023/05/15 07:35:51;;;;;;;10.73;5.93;;;;;;;18.71;100.00;97196.31;5095430;28;20028;-76
2023/05/15 07:38:17;;;;;;;14.90;7.60;;;;;;;18.45;100.00;97207.03;5111912;28;20473;-74
2023/05/15 07:40:42;;;;;;;15.23;8.52;;;;;;;18.31;100.00;97199.41;5095413;28;20027;-75
2023/05/15 07:43:10;;;;;;;9.70;5.82;;;;;;;18.10;100.00;97205.06;5112231;28;20046;-75
2023/05/15 07:45:36;;;;;;;13.20;6.60;;;;;;;17.97;100.00;97203.69;5105129;28;20027;-75
2023/05/15 07:48:16;;;;;;;11.23;6.97;;;;;;;17.54;100.00;97204.25;5094877;28;20034;-75
2023/05/15 07:50:42;;;;;;;15.35;8.10;;;;;;;17.34;100.00;97207.00;5105699;28;20096;-75
2023/05/15 07:53:07;;;;;;;11.38;7.72;;;;;;;17.17;100.00;97231.19;5095064;28;20043;-75
2023/05/15 07:55:33;;;;;;;12.07;6.80;;;;;;;16.78;100.00;97227.66;5111787;28;20028;-74
2023/05/15 07:57:59;;;;;;;13.02;6.65;;;;;;;16.65;100.00;97233.31;5070358;28;20016;-74
2023/05/15 08:00:25;;;;;;;15.18;7.78;;;;;;;16.62;100.00;97227.34;5094233;28;20028;-74
2023/05/15 08:02:50;;;;;;;14.60;6.90;;;;;;;16.50;100.00;97237.41;5077839;28;20456;-74
2023/05/15 08:05:16;;;;;;;18.55;7.68;;;;;;;16.46;100.00;97235.94;5092859;28;20541;-74
2023/05/15 08:07:41;;;;;;;13.05;7.90;;;;;;;16.53;100.00;97223.63;5095565;28;20028;-74
2023/05/15 08:10:10;;;;;;;11.90;7.13;;;;;;;16.58;100.00;97217.84;5112750;28;20120;-75
2023/05/15 08:13:14;;;;;;;11.98;6.40;;;;;;;16.26;100.00;97209.91;5112464;28;20035;-75
2023/05/15 08:19:22;;;;;;;15.23;9.05;;;;;;;16.28;100.00;97221.41;5028863;28;20079;-76
2023/05/15 08:22:32;;;;;;;12.63;7.72;;;;;;;16.41;100.00;97230.13;5037829;28;20025;-75
2023/05/15 08:24:59;;;;;;;15.25;7.60;;;;;;;16.21;100.00;97241.88;5070075;28;20125;-75
2023/05/15 08:27:25;;;;;;;15.77;7.80;;;;;;;15.84;100.00;97230.81;5036866;28;20496;-75
2023/05/15 08:29:54;;;;;;;13.57;7.80;;;;;;;15.88;100.00;97252.94;5054098;28;20507;-76
2023/05/15 08:32:19;;;;;;;16.13;8.38;;;;;;;15.96;100.00;97256.69;5037455;28;20024;-74
2023/05/15 08:34:45;;;;;;;14.77;8.75;;;;;;;15.70;100.00;97256.28;5053578;28;20032;-74
2023/05/15 08:37:10;;;;;;;13.93;8.90;;;;;;;15.45;100.00;97277.34;5070553;28;20024;-75
2023/05/15 08:39:36;;;;;;;15.05;8.35;;;;;;;15.14;100.00;97281.81;5053368;28;20060;-75
2023/05/15 08:42:10;;;;;;;14.88;8.73;;;;;;;14.79;100.00;97306.31;5037082;28;20571;-75
2023/05/15 08:44:36;;;;;;;14.93;8.85;;;;;;;14.72;100.00;97317.72;5053446;28;20094;-74
2023/05/15 08:47:02;;;;;;;16.98;9.25;;;;;;;14.49;100.00;97331.19;5116490;27;20039;-74
2023/05/15 08:49:36;;;;;;;14.52;8.38;;;;;;;14.47;100.00;97326.94;5111602;28;20122;-74
2023/05/15 08:52:03;;;;;;;16.27;9.32;;;;;;;14.38;100.00;97315.09;5111980;28;20019;-74
2023/05/15 08:54:29;;;;;;;21.13;9.80;;;;;;;14.31;100.00;97312.97;5094423;28;20449;-75
2023/05/15 08:56:55;;;;;;;16.67;9.35;;;;;;;14.40;100.00;97331.94;5111575;28;20023;-76
2023/05/15 08:59:20;;;;;;;14.10;8.52;;;;;;;14.39;100.00;97330.25;5111675;28;20027;-75
2023/05/15 09:01:46;;;;;;;15.77;9.25;;;;;;;14.39;100.00;97324.88;5094204;28;20036;-75
2023/05/15 09:04:11;;;;;;;17.13;9.27;;;;;;;14.55;100.00;97325.31;5094534;28;20110;-76
2023/05/15 09:06:38;;;;;;;16.85;10.57;;;;;;;14.72;100.00;97310.50;5111235;28;20032;-75
2023/05/15 09:09:04;;;;;;;20.15;12.57;;;;;;;15.04;100.00;97315.91;5111154;28;20088;-76
2023/05/15 09:11:30;;;;;;;17.23;9.25;;;;;;;15.71;100.00;97309.22;5111212;28;20020;-74
2023/05/15 09:13:58;;;;;;;12.98;8.90;;;;;;;16.08;100.00;97298.78;5111188;28;20021;-75
2023/05/15 09:16:23;;;;;;;11.52;7.45;;;;;;;16.22;100.00;97293.00;5094211;28;20027;-75
2023/05/15 09:18:51;;;;;;;15.77;8.43;;;;;;;16.35;100.00;97279.28;5110924;28;20376;-75
2023/05/15 09:21:35;;;;;;;14.05;7.70;;;;;;;16.42;100.00;97275.03;5094074;28;20036;-75
2023/05/15 09:24:22;;;;;;;17.75;8.50;;;;;;;16.77;100.00;97271.88;5112269;28;20388;-75
2023/05/15 09:27:02;;;;;;;11.43;7.38;;;;;;;17.13;100.00;97263.09;5111073;28;20042;-75
2023/05/15 09:29:29;;;;;;;13.43;8.15;;;;;;;17.40;100.00;97261.50;5111114;28;20517;-75
2023/05/15 09:31:55;;;;;;;13.73;7.70;;;;;;;17.28;100.00;97225.66;5110636;28;20107;-75
2023/05/15 09:34:31;;;;;;;13.80;8.88;;;;;;;17.40;100.00;97227.22;5112200;28;20142;-74
2023/05/15 09:36:57;;;;;;;16.17;9.32;;;;;;;17.51;100.00;97218.91;5093732;28;20204;-75
2023/05/15 09:39:23;;;;;;;13.43;7.75;;;;;;;17.59;100.00;97219.09;5093760;28;20069;-75
2023/05/15 09:41:49;;;;;;;15.38;8.52;;;;;;;17.44;100.00;97201.59;5110877;28;20469;-75
2023/05/15 09:44:19;;;;;;;16.52;8.65;;;;;;;17.40;100.00;97208.28;5093704;28;20088;-75
2023/05/15 09:46:46;;;;;;;12.38;8.57;;;;;;;17.41;100.00;97212.66;5093637;28;20035;-75
2023/05/15 09:49:12;;;;;;;13.13;9.07;;;;;;;17.58;100.00;97230.91;5110640;28;20037;-75
2023/05/15 09:51:37;;;;;;;14.63;9.93;;;;;;;17.75;100.00;97232.84;5110728;28;20035;-75
2023/05/15 09:54:03;;;;;;;13.82;8.48;;;;;;;17.81;100.00;97229.53;5110312;28;20043;-75
2023/05/15 09:56:28;;;;;;;65.90;35.08;;;;;;;18.05;100.00;97236.31;5111911;28;20530;-75
2023/05/15 09:58:55;;;;;;;17.15;9.95;;;;;;;18.49;100.00;97232.81;5110485;28;20027;-75
2023/05/15 10:01:22;;;;;;;15.57;8.73;;;;;;;18.61;100.00;97226.19;5110345;28;20035;-74
2023/05/15 10:04:02;;;;;;;15.88;7.78;;;;;;;18.85;100.00;97209.34;5090189;28;20036;-75
2023/05/15 10:06:37;;;;;;;13.32;7.65;;;;;;;19.10;100.00;97213.16;5110301;28;20020;-75
2023/05/15 10:09:03;;;;;;;33.13;20.42;;;;;;;19.37;100.00;97205.75;5110004;28;20023;-75
2023/05/15 10:11:37;;;;;;;14.85;7.07;;;;;;;19.63;100.00;97194.94;5110145;28;20095;-75
2023/05/15 10:14:05;;;;;;;12.63;7.78;;;;;;;19.69;100.00;97191.56;5110111;28;20066;-75
2023/05/15 10:16:34;;;;;;;17.15;9.77;;;;;;;19.42;100.00;97186.31;5110064;28;20046;-74
2023/05/15 10:19:01;;;;;;;14.77;7.57;;;;;;;19.47;100.00;97178.56;5093382;28;20020;-81
2023/05/15 10:21:27;;;;;;;16.92;8.35;;;;;;;19.59;100.00;97181.84;5109688;28;20107;-80
2023/05/15 10:23:54;;;;;;;15.80;7.82;;;;;;;19.72;100.00;97183.09;5110803;28;20483;-82
2023/05/15 10:26:23;;;;;;;18.65;8.52;;;;;;;19.96;100.00;97172.38;5110707;28;20027;-81
2023/05/15 10:28:50;;;;;;;24.98;8.23;;;;;;;20.03;100.00;97151.72;5111863;28;20032;-81
2023/05/15 10:31:17;;;;;;;20.08;8.52;;;;;;;20.12;100.00;97140.91;5110195;28;20024;-80
2023/05/15 10:33:43;;;;;;;17.48;8.88;;;;;;;20.20;100.00;97144.50;5110382;28;20028;-81
2023/05/15 10:36:09;;;;;;;17.90;8.48;;;;;;;20.08;100.00;97143.09;5093306;28;20058;-80
2023/05/15 10:38:35;;;;;;;19.73;8.32;;;;;;;20.03;100.00;97132.72;5110267;28;20043;-80
2023/05/15 10:41:01;;;;;;;13.40;8.23;;;;;;;19.83;100.00;97142.13;5110209;28;20012;-81
2023/05/15 10:43:27;;;;;;;19.52;10.30;;;;;;;20.08;100.00;97153.09;5109832;28;20085;-81
2023/05/15 10:45:54;;;;;;;17.52;9.82;;;;;;;20.06;100.00;97152.44;5093062;28;20035;-80
2023/05/15 10:48:20;;;;;;;20.90;9.75;;;;;;;20.28;100.00;97155.41;5109927;28;20028;-79
2023/05/15 10:50:47;;;;;;;21.77;8.65;;;;;;;20.37;100.00;97159.00;5111382;28;20170;-80
2023/05/15 10:53:13;;;;;;;13.88;8.90;;;;;;;20.53;100.00;97159.91;5109786;28;20513;-80
2023/05/15 10:55:39;;;;;;;13.90;8.15;;;;;;;20.56;100.00;97166.88;5110002;28;20047;-80
2023/05/15 10:58:08;;;;;;;17.73;8.32;;;;;;;20.54;100.00;97168.91;5110024;28;20335;-81
2023/05/15 11:00:41;;;;;;;14.40;8.10;;;;;;;20.40;100.00;97166.81;5109887;28;20026;-81
2023/05/15 11:03:06;;;;;;;;;;;;;;;20.48;100.00;97180.44;5110352;28;20020;-81
2023/05/15 11:06:11;;;;;;;17.50;7.20;;;;;;;20.51;100.00;97186.41;5109648;28;19922;-81
2023/05/15 11:08:38;;;;;;;14.35;7.47;;;;;;;20.69;100.00;97191.72;5111162;28;20024;-81
2023/05/15 11:11:04;;;;;;;17.17;9.02;;;;;;;20.58;100.00;97202.88;5093203;28;20490;-82
2023/05/15 11:14:04;;;;;;;17.10;8.63;;;;;;;20.30;100.00;97201.44;5109665;28;20164;-81
2023/05/15 11:16:51;;;;;;;24.27;10.48;;;;;;;19.88;100.00;97213.06;5111009;28;20035;-81
2023/05/15 11:19:22;;;;;;;17.35;10.30;;;;;;;19.83;100.00;97215.44;5109701;28;20030;-81
2023/05/15 11:22:08;;;;;;;21.90;10.27;;;;;;;19.97;100.00;97216.69;5111396;28;20015;-82
2023/05/15 11:24:58;;;;;;;40.78;18.63;;;;;;;19.92;100.00;97221.75;5096208;28;20273;-81
2023/05/15 11:27:25;;;;;;;27.15;11.38;;;;;;;19.82;100.00;97227.28;5111286;28;20043;-81